sensor_id;sensor_type;location;lat;lon;timestamp;temperature;humidity
68139;DHT22;54940;50.842;4.410;2023-02-03T00:01:27;9.80;99.90
68139;DHT22;54940;50.842;4.410;2023-02-03T00:03:52;9.70;99.90
68139;DHT22;54940;50.842;4.410;2023-02-03T00:06:18;9.70;99.90
68139;DHT22;54940;50.842;4.410;2023-02-03T00:08:44;9.70;99.90
68139;DHT22;54940;50.842;4.410;2023-02-03T00:11:10;9.70;99.90
68139;DHT22;54940;50.842;4.410;2023-02-03T00:13:35;9.70;99.90
68139;DHT22;54940;50.842;4.410;2023-02-03T00:16:01;9.70;99.90
68139;DHT22;54940;50.842;4.410;2023-02-03T00:18:27;9.70;99.90
68139;DHT22;54940;50.842;4.410;2023-02-03T00:20:53;9.70;99.90
68139;DHT22;54940;50.842;4.410;2023-02-03T00:23:19;9.70;99.90
68139;DHT22;54940;50.842;4.410;2023-02-03T00:25:44;9.70;99.90
68139;DHT22;54940;50.842;4.410;2023-02-03T00:28:10;9.60;99.90
68139;DHT22;54940;50.842;4.410;2023-02-03T00:30:36;9.60;99.90
68139;DHT22;54940;50.842;4.410;2023-02-03T00:33:03;9.50;99.90
68139;DHT22;54940;50.842;4.410;2023-02-03T00:35:29;9.40;99.90
68139;DHT22;54940;50.842;4.410;2023-02-03T00:37:55;9.50;99.90
68139;DHT22;54940;50.842;4.410;2023-02-03T00:40:23;9.50;99.90
68139;DHT22;54940;50.842;4.410;2023-02-03T00:42:49;9.60;99.90
68139;DHT22;54940;50.842;4.410;2023-02-03T00:45:15;9.60;99.90
68139;DHT22;54940;50.842;4.410;2023-02-03T00:47:41;9.60;99.90
68139;DHT22;54940;50.842;4.410;2023-02-03T00:50:07;9.50;99.90
68139;DHT22;54940;50.842;4.410;2023-02-03T00:52:33;9.60;99.90
68139;DHT22;54940;50.842;4.410;2023-02-03T00:54:59;9.50;99.90
68139;DHT22;54940;50.842;4.410;2023-02-03T00:57:25;9.50;99.90
68139;DHT22;54940;50.842;4.410;2023-02-03T00:59:50;9.50;99.90
68139;DHT22;54940;50.842;4.410;2023-02-03T01:02:16;9.50;99.90
68139;DHT22;54940;50.842;4.410;2023-02-03T01:04:42;9.50;99.90
68139;DHT22;54940;50.842;4.410;2023-02-03T01:07:08;9.60;99.90
68139;DHT22;54940;50.842;4.410;2023-02-03T01:09:35;9.60;99.90
68139;DHT22;54940;50.842;4.410;2023-02-03T01:12:01;9.60;99.90
68139;DHT22;54940;50.842;4.410;2023-02-03T01:14:27;9.70;99.90
68139;DHT22;54940;50.842;4.410;2023-02-03T01:16:53;9.70;99.90
68139;DHT22;54940;50.842;4.410;2023-02-03T01:19:19;9.60;99.90
68139;DHT22;54940;50.842;4.410;2023-02-03T01:21:44;9.60;99.90
68139;DHT22;54940;50.842;4.410;2023-02-03T01:24:10;9.60;99.90
68139;DHT22;54940;50.842;4.410;2023-02-03T01:26:36;9.60;99.90
68139;DHT22;54940;50.842;4.410;2023-02-03T01:29:02;9.60;99.90
68139;DHT22;54940;50.842;4.410;2023-02-03T01:31:31;9.70;99.90
68139;DHT22;54940;50.842;4.410;2023-02-03T01:33:59;9.70;99.90
68139;DHT22;54940;50.842;4.410;2023-02-03T01:36:27;9.70;99.90
68139;DHT22;54940;50.842;4.410;2023-02-03T01:38:53;9.70;99.90
68139;DHT22;54940;50.842;4.410;2023-02-03T01:41:28;9.70;99.90
68139;DHT22;54940;50.842;4.410;2023-02-03T01:43:55;9.70;99.90
68139;DHT22;54940;50.842;4.410;2023-02-03T01:49:39;9.70;99.90
68139;DHT22;54940;50.842;4.410;2023-02-03T01:51:42;9.70;99.90
68139;DHT22;54940;50.842;4.410;2023-02-03T01:54:11;9.70;99.90
68139;DHT22;54940;50.842;4.410;2023-02-03T01:56:41;9.60;99.90
68139;DHT22;54940;50.842;4.410;2023-02-03T01:59:08;9.70;99.90
68139;DHT22;54940;50.842;4.410;2023-02-03T02:01:34;9.70;99.90
68139;DHT22;54940;50.842;4.410;2023-02-03T02:04:02;9.60;99.90
68139;DHT22;54940;50.842;4.410;2023-02-03T02:06:28;9.70;99.90
68139;DHT22;54940;50.842;4.410;2023-02-03T02:08:56;9.70;99.90
68139;DHT22;54940;50.842;4.410;2023-02-03T02:11:23;9.70;99.90
68139;DHT22;54940;50.842;4.410;2023-02-03T02:13:50;9.70;99.90
68139;DHT22;54940;50.842;4.410;2023-02-03T02:19:37;9.70;99.90
68139;DHT22;54940;50.842;4.410;2023-02-03T02:22:27;9.70;99.90
68139;DHT22;54940;50.842;4.410;2023-02-03T02:38:09;9.80;99.90
68139;DHT22;54940;50.842;4.410;2023-02-03T02:40:50;9.80;99.90
68139;DHT22;54940;50.842;4.410;2023-02-03T02:43:26;9.80;99.90
68139;DHT22;54940;50.842;4.410;2023-02-03T02:46:08;9.80;99.90
68139;DHT22;54940;50.842;4.410;2023-02-03T02:48:49;9.80;99.90
68139;DHT22;54940;50.842;4.410;2023-02-03T02:51:17;9.80;99.90
68139;DHT22;54940;50.842;4.410;2023-02-03T02:53:50;9.70;99.90
68139;DHT22;54940;50.842;4.410;2023-02-03T02:56:18;9.80;99.90
68139;DHT22;54940;50.842;4.410;2023-02-03T02:58:47;9.70;99.90
68139;DHT22;54940;50.842;4.410;2023-02-03T03:01:14;9.80;99.90
68139;DHT22;54940;50.842;4.410;2023-02-03T03:03:41;9.80;99.90
68139;DHT22;54940;50.842;4.410;2023-02-03T03:06:20;9.70;99.90
68139;DHT22;54940;50.842;4.410;2023-02-03T03:09:02;9.70;99.90
68139;DHT22;54940;50.842;4.410;2023-02-03T03:11:34;9.60;99.90
68139;DHT22;54940;50.842;4.410;2023-02-03T03:14:01;9.70;99.90
68139;DHT22;54940;50.842;4.410;2023-02-03T03:16:30;9.80;99.90
68139;DHT22;54940;50.842;4.410;2023-02-03T03:19:17;9.80;99.90
68139;DHT22;54940;50.842;4.410;2023-02-03T03:21:51;9.80;99.90
68139;DHT22;54940;50.842;4.410;2023-02-03T03:24:31;9.70;99.90
68139;DHT22;54940;50.842;4.410;2023-02-03T03:27:07;9.80;99.90
68139;DHT22;54940;50.842;4.410;2023-02-03T03:29:38;9.80;99.90
68139;DHT22;54940;50.842;4.410;2023-02-03T03:32:05;9.80;99.90
68139;DHT22;54940;50.842;4.410;2023-02-03T03:34:31;9.80;99.90
68139;DHT22;54940;50.842;4.410;2023-02-03T03:44:47;9.70;99.90
68139;DHT22;54940;50.842;4.410;2023-02-03T03:49:57;9.80;99.90
68139;DHT22;54940;50.842;4.410;2023-02-03T03:52:28;9.80;99.90
68139;DHT22;54940;50.842;4.410;2023-02-03T03:54:56;9.70;99.90
68139;DHT22;54940;50.842;4.410;2023-02-03T03:57:38;9.70;99.90
68139;DHT22;54940;50.842;4.410;2023-02-03T04:00:06;9.70;99.90
68139;DHT22;54940;50.842;4.410;2023-02-03T04:02:35;9.80;99.90
68139;DHT22;54940;50.842;4.410;2023-02-03T04:05:04;9.80;99.90
68139;DHT22;54940;50.842;4.410;2023-02-03T04:07:41;9.90;99.90
68139;DHT22;54940;50.842;4.410;2023-02-03T04:12:39;9.80;99.90
68139;DHT22;54940;50.842;4.410;2023-02-03T04:15:04;9.80;99.90
68139;DHT22;54940;50.842;4.410;2023-02-03T04:17:30;9.80;99.90
68139;DHT22;54940;50.842;4.410;2023-02-03T04:19:58;9.80;99.90
68139;DHT22;54940;50.842;4.410;2023-02-03T04:22:24;9.70;99.90
68139;DHT22;54940;50.842;4.410;2023-02-03T04:24:49;9.80;99.90
68139;DHT22;54940;50.842;4.410;2023-02-03T04:27:15;9.80;99.90
68139;DHT22;54940;50.842;4.410;2023-02-03T04:29:40;9.80;99.90
68139;DHT22;54940;50.842;4.410;2023-02-03T04:32:06;9.80;99.90
68139;DHT22;54940;50.842;4.410;2023-02-03T04:34:32;9.80;99.90
68139;DHT22;54940;50.842;4.410;2023-02-03T04:36:57;9.80;99.90
68139;DHT22;54940;50.842;4.410;2023-02-03T04:39:23;9.70;99.90
68139;DHT22;54940;50.842;4.410;2023-02-03T04:41:48;9.70;99.90
68139;DHT22;54940;50.842;4.410;2023-02-03T04:44:14;9.70;99.90
68139;DHT22;54940;50.842;4.410;2023-02-03T04:46:40;9.60;99.90
68139;DHT22;54940;50.842;4.410;2023-02-03T04:49:05;9.70;99.90
68139;DHT22;54940;50.842;4.410;2023-02-03T04:51:31;9.70;99.90
68139;DHT22;54940;50.842;4.410;2023-02-03T04:53:57;9.70;99.90
68139;DHT22;54940;50.842;4.410;2023-02-03T04:56:22;9.60;99.90
68139;DHT22;54940;50.842;4.410;2023-02-03T04:58:48;9.60;99.90
68139;DHT22;54940;50.842;4.410;2023-02-03T05:01:13;9.70;99.90
68139;DHT22;54940;50.842;4.410;2023-02-03T05:03:39;9.80;99.90
68139;DHT22;54940;50.842;4.410;2023-02-03T05:06:05;9.80;99.90
68139;DHT22;54940;50.842;4.410;2023-02-03T05:08:31;9.80;99.90
68139;DHT22;54940;50.842;4.410;2023-02-03T05:10:57;9.80;99.90
68139;DHT22;54940;50.842;4.410;2023-02-03T05:13:23;9.80;99.90
68139;DHT22;54940;50.842;4.410;2023-02-03T05:15:48;9.70;99.90
68139;DHT22;54940;50.842;4.410;2023-02-03T05:18:14;9.70;99.90
68139;DHT22;54940;50.842;4.410;2023-02-03T05:20:40;9.70;99.90
68139;DHT22;54940;50.842;4.410;2023-02-03T05:23:05;9.70;99.90
68139;DHT22;54940;50.842;4.410;2023-02-03T05:25:31;9.60;99.90
68139;DHT22;54940;50.842;4.410;2023-02-03T05:27:56;9.60;99.90
68139;DHT22;54940;50.842;4.410;2023-02-03T05:30:22;9.60;99.90
68139;DHT22;54940;50.842;4.410;2023-02-03T05:32:48;9.70;99.90
68139;DHT22;54940;50.842;4.410;2023-02-03T05:35:14;9.60;99.90
68139;DHT22;54940;50.842;4.410;2023-02-03T05:37:42;9.60;99.90
68139;DHT22;54940;50.842;4.410;2023-02-03T05:40:08;9.60;99.90
68139;DHT22;54940;50.842;4.410;2023-02-03T05:42:52;9.60;99.90
68139;DHT22;54940;50.842;4.410;2023-02-03T05:45:18;9.60;99.90
68139;DHT22;54940;50.842;4.410;2023-02-03T05:47:44;9.60;99.90
68139;DHT22;54940;50.842;4.410;2023-02-03T05:50:09;9.70;99.90
68139;DHT22;54940;50.842;4.410;2023-02-03T05:52:35;9.70;99.90
68139;DHT22;54940;50.842;4.410;2023-02-03T05:55:01;9.70;99.90
68139;DHT22;54940;50.842;4.410;2023-02-03T05:57:26;9.60;99.90
68139;DHT22;54940;50.842;4.410;2023-02-03T05:59:52;9.70;99.90
68139;DHT22;54940;50.842;4.410;2023-02-03T06:02:18;9.70;99.90
68139;DHT22;54940;50.842;4.410;2023-02-03T06:04:43;9.60;99.90
68139;DHT22;54940;50.842;4.410;2023-02-03T06:07:09;9.60;99.90
68139;DHT22;54940;50.842;4.410;2023-02-03T06:09:34;9.60;99.90
68139;DHT22;54940;50.842;4.410;2023-02-03T06:12:00;9.70;99.90
68139;DHT22;54940;50.842;4.410;2023-02-03T06:14:26;9.70;99.90
68139;DHT22;54940;50.842;4.410;2023-02-03T06:16:52;9.70;99.90
68139;DHT22;54940;50.842;4.410;2023-02-03T06:19:18;9.80;99.90
68139;DHT22;54940;50.842;4.410;2023-02-03T06:21:44;9.80;99.90
68139;DHT22;54940;50.842;4.410;2023-02-03T06:24:09;9.80;99.90
68139;DHT22;54940;50.842;4.410;2023-02-03T06:26:35;9.80;99.90
68139;DHT22;54940;50.842;4.410;2023-02-03T06:29:01;9.80;99.90
68139;DHT22;54940;50.842;4.410;2023-02-03T06:31:27;9.70;99.90
68139;DHT22;54940;50.842;4.410;2023-02-03T06:33:53;9.70;99.90
68139;DHT22;54940;50.842;4.410;2023-02-03T06:36:18;9.70;99.90
68139;DHT22;54940;50.842;4.410;2023-02-03T06:38:44;9.80;99.90
68139;DHT22;54940;50.842;4.410;2023-02-03T06:41:09;9.80;99.90
68139;DHT22;54940;50.842;4.410;2023-02-03T06:43:35;9.80;99.90
68139;DHT22;54940;50.842;4.410;2023-02-03T06:46:01;9.80;99.90
68139;DHT22;54940;50.842;4.410;2023-02-03T06:48:27;9.70;99.90
68139;DHT22;54940;50.842;4.410;2023-02-03T06:50:52;9.80;99.90
68139;DHT22;54940;50.842;4.410;2023-02-03T06:53:18;9.80;99.90
68139;DHT22;54940;50.842;4.410;2023-02-03T06:55:43;9.80;99.90
68139;DHT22;54940;50.842;4.410;2023-02-03T06:58:09;9.70;99.90
68139;DHT22;54940;50.842;4.410;2023-02-03T07:00:35;9.70;99.90
68139;DHT22;54940;50.842;4.410;2023-02-03T07:03:00;9.80;99.90
68139;DHT22;54940;50.842;4.410;2023-02-03T07:05:27;9.70;99.90
68139;DHT22;54940;50.842;4.410;2023-02-03T07:07:52;9.70;99.90
68139;DHT22;54940;50.842;4.410;2023-02-03T07:10:18;9.70;99.90
68139;DHT22;54940;50.842;4.410;2023-02-03T07:12:44;9.60;99.90
68139;DHT22;54940;50.842;4.410;2023-02-03T07:15:11;9.80;99.90
68139;DHT22;54940;50.842;4.410;2023-02-03T07:17:37;9.70;99.90
68139;DHT22;54940;50.842;4.410;2023-02-03T07:20:03;9.70;99.90
68139;DHT22;54940;50.842;4.410;2023-02-03T07:22:29;9.80;99.90
68139;DHT22;54940;50.842;4.410;2023-02-03T07:24:55;9.70;99.90
68139;DHT22;54940;50.842;4.410;2023-02-03T07:27:21;9.70;99.90
68139;DHT22;54940;50.842;4.410;2023-02-03T07:29:46;9.70;99.90
68139;DHT22;54940;50.842;4.410;2023-02-03T07:32:12;9.60;99.90
68139;DHT22;54940;50.842;4.410;2023-02-03T07:34:37;9.70;99.90
68139;DHT22;54940;50.842;4.410;2023-02-03T07:37:03;9.70;99.90
68139;DHT22;54940;50.842;4.410;2023-02-03T07:39:29;9.70;99.90
68139;DHT22;54940;50.842;4.410;2023-02-03T07:41:54;9.80;99.90
68139;DHT22;54940;50.842;4.410;2023-02-03T07:44:20;9.70;99.90
68139;DHT22;54940;50.842;4.410;2023-02-03T07:46:46;9.70;99.90
68139;DHT22;54940;50.842;4.410;2023-02-03T07:49:12;9.80;99.90
68139;DHT22;54940;50.842;4.410;2023-02-03T07:51:38;9.80;99.90
68139;DHT22;54940;50.842;4.410;2023-02-03T07:54:04;9.80;99.90
68139;DHT22;54940;50.842;4.410;2023-02-03T07:56:30;9.80;99.90
68139;DHT22;54940;50.842;4.410;2023-02-03T07:58:57;9.80;99.90
68139;DHT22;54940;50.842;4.410;2023-02-03T08:01:23;9.80;99.90
68139;DHT22;54940;50.842;4.410;2023-02-03T08:03:49;9.80;99.90
68139;DHT22;54940;50.842;4.410;2023-02-03T08:06:15;9.80;99.90
68139;DHT22;54940;50.842;4.410;2023-02-03T08:08:40;9.80;99.90
68139;DHT22;54940;50.842;4.410;2023-02-03T08:11:06;9.80;99.90
68139;DHT22;54940;50.842;4.410;2023-02-03T08:13:33;9.80;99.90
68139;DHT22;54940;50.842;4.410;2023-02-03T08:15:59;9.90;99.90
68139;DHT22;54940;50.842;4.410;2023-02-03T08:18:25;9.90;99.90
68139;DHT22;54940;50.842;4.410;2023-02-03T08:20:50;9.80;99.90
68139;DHT22;54940;50.842;4.410;2023-02-03T08:23:16;9.80;99.90
68139;DHT22;54940;50.842;4.410;2023-02-03T08:25:42;9.80;99.90
68139;DHT22;54940;50.842;4.410;2023-02-03T08:28:08;9.80;99.90
68139;DHT22;54940;50.842;4.410;2023-02-03T08:30:34;9.80;99.90
68139;DHT22;54940;50.842;4.410;2023-02-03T08:33:00;9.80;99.90
68139;DHT22;54940;50.842;4.410;2023-02-03T08:35:27;9.80;99.90
68139;DHT22;54940;50.842;4.410;2023-02-03T08:37:53;9.80;99.90
68139;DHT22;54940;50.842;4.410;2023-02-03T08:40:18;9.80;99.90
68139;DHT22;54940;50.842;4.410;2023-02-03T08:42:44;9.80;99.90
68139;DHT22;54940;50.842;4.410;2023-02-03T08:45:10;9.80;99.90
68139;DHT22;54940;50.842;4.410;2023-02-03T08:47:36;9.80;99.90
68139;DHT22;54940;50.842;4.410;2023-02-03T08:50:05;9.80;99.90
68139;DHT22;54940;50.842;4.410;2023-02-03T08:52:30;9.90;99.90
68139;DHT22;54940;50.842;4.410;2023-02-03T08:54:56;9.90;99.90
68139;DHT22;54940;50.842;4.410;2023-02-03T08:57:22;10.00;99.90
68139;DHT22;54940;50.842;4.410;2023-02-03T08:59:47;10.10;99.90
68139;DHT22;54940;50.842;4.410;2023-02-03T09:02:17;10.10;99.90
68139;DHT22;54940;50.842;4.410;2023-02-03T09:04:44;10.10;99.90
68139;DHT22;54940;50.842;4.410;2023-02-03T09:07:10;10.10;99.90
68139;DHT22;54940;50.842;4.410;2023-02-03T09:09:37;10.00;99.90
68139;DHT22;54940;50.842;4.410;2023-02-03T09:12:05;10.00;99.90
68139;DHT22;54940;50.842;4.410;2023-02-03T09:14:32;10.00;99.90
68139;DHT22;54940;50.842;4.410;2023-02-03T09:16:59;10.00;99.90
68139;DHT22;54940;50.842;4.410;2023-02-03T09:19:25;10.10;99.90
68139;DHT22;54940;50.842;4.410;2023-02-03T09:21:51;10.10;99.90
68139;DHT22;54940;50.842;4.410;2023-02-03T09:24:17;10.20;99.90
68139;DHT22;54940;50.842;4.410;2023-02-03T09:26:43;10.10;99.90
68139;DHT22;54940;50.842;4.410;2023-02-03T09:29:09;10.10;99.90
68139;DHT22;54940;50.842;4.410;2023-02-03T09:31:35;10.10;99.90
68139;DHT22;54940;50.842;4.410;2023-02-03T09:34:01;10.20;99.90
68139;DHT22;54940;50.842;4.410;2023-02-03T09:36:27;10.20;99.90
68139;DHT22;54940;50.842;4.410;2023-02-03T09:38:52;10.20;99.90
68139;DHT22;54940;50.842;4.410;2023-02-03T09:41:49;10.10;99.90
68139;DHT22;54940;50.842;4.410;2023-02-03T09:47:16;10.20;99.90
68139;DHT22;54940;50.842;4.410;2023-02-03T09:49:47;10.30;99.90
68139;DHT22;54940;50.842;4.410;2023-02-03T09:52:27;10.30;99.90
68139;DHT22;54940;50.842;4.410;2023-02-03T09:55:04;10.30;99.90
68139;DHT22;54940;50.842;4.410;2023-02-03T09:57:43;10.30;99.90
68139;DHT22;54940;50.842;4.410;2023-02-03T10:00:25;10.30;99.90
68139;DHT22;54940;50.842;4.410;2023-02-03T10:15:54;10.40;99.90
68139;DHT22;54940;50.842;4.410;2023-02-03T10:18:27;10.50;99.90
68139;DHT22;54940;50.842;4.410;2023-02-03T10:20:57;10.50;99.90
68139;DHT22;54940;50.842;4.410;2023-02-03T10:23:33;10.50;99.90
68139;DHT22;54940;50.842;4.410;2023-02-03T10:26:00;10.60;99.90
68139;DHT22;54940;50.842;4.410;2023-02-03T10:28:29;10.50;99.90
68139;DHT22;54940;50.842;4.410;2023-02-03T10:31:00;10.60;99.90
68139;DHT22;54940;50.842;4.410;2023-02-03T10:33:28;10.50;99.90
68139;DHT22;54940;50.842;4.410;2023-02-03T10:36:20;10.60;99.90
68139;DHT22;54940;50.842;4.410;2023-02-03T10:41:49;10.70;99.90
68139;DHT22;54940;50.842;4.410;2023-02-03T10:44:15;10.80;99.90
68139;DHT22;54940;50.842;4.410;2023-02-03T10:46:42;10.70;99.90
68139;DHT22;54940;50.842;4.410;2023-02-03T10:49:12;10.70;99.90
68139;DHT22;54940;50.842;4.410;2023-02-03T10:54:33;10.70;99.90
68139;DHT22;54940;50.842;4.410;2023-02-03T10:57:05;10.70;99.90
68139;DHT22;54940;50.842;4.410;2023-02-03T10:59:34;10.70;99.90
68139;DHT22;54940;50.842;4.410;2023-02-03T11:02:07;10.60;99.90
68139;DHT22;54940;50.842;4.410;2023-02-03T11:04:33;10.70;99.90
68139;DHT22;54940;50.842;4.410;2023-02-03T11:07:01;10.70;99.90
68139;DHT22;54940;50.842;4.410;2023-02-03T11:09:48;10.70;99.90
68139;DHT22;54940;50.842;4.410;2023-02-03T11:12:14;10.80;99.90
68139;DHT22;54940;50.842;4.410;2023-02-03T11:14:43;10.70;99.90
68139;DHT22;54940;50.842;4.410;2023-02-03T11:17:18;10.70;99.90
68139;DHT22;54940;50.842;4.410;2023-02-03T11:19:49;10.70;99.90
68139;DHT22;54940;50.842;4.410;2023-02-03T11:22:35;10.70;99.90
68139;DHT22;54940;50.842;4.410;2023-02-03T11:25:02;10.70;99.90
68139;DHT22;54940;50.842;4.410;2023-02-03T11:27:31;10.70;99.90
68139;DHT22;54940;50.842;4.410;2023-02-03T11:30:19;10.80;99.90
68139;DHT22;54940;50.842;4.410;2023-02-03T11:32:48;10.80;99.90
68139;DHT22;54940;50.842;4.410;2023-02-03T11:35:22;10.70;99.90
68139;DHT22;54940;50.842;4.410;2023-02-03T11:37:54;10.70;99.90
68139;DHT22;54940;50.842;4.410;2023-02-03T11:50:56;10.50;99.90
68139;DHT22;54940;50.842;4.410;2023-02-03T12:08:02;10.50;99.90
68139;DHT22;54940;50.842;4.410;2023-02-03T12:10:59;10.50;99.90
68139;DHT22;54940;50.842;4.410;2023-02-03T12:16:31;10.60;99.90
68139;DHT22;54940;50.842;4.410;2023-02-03T12:21:46;10.70;99.90
68139;DHT22;54940;50.842;4.410;2023-02-03T12:29:41;10.60;99.90
68139;DHT22;54940;50.842;4.410;2023-02-03T12:32:34;10.70;99.90
68139;DHT22;54940;50.842;4.410;2023-02-03T12:35:27;10.70;99.90
68139;DHT22;54940;50.842;4.410;2023-02-03T12:38:02;10.70;99.90
68139;DHT22;54940;50.842;4.410;2023-02-03T12:40:53;10.70;99.90
68139;DHT22;54940;50.842;4.410;2023-02-03T12:43:41;10.70;99.90
68139;DHT22;54940;50.842;4.410;2023-02-03T12:49:09;10.80;99.90
68139;DHT22;54940;50.842;4.410;2023-02-03T12:51:53;10.80;99.90
68139;DHT22;54940;50.842;4.410;2023-02-03T13:00:47;10.80;99.90
68139;DHT22;54940;50.842;4.410;2023-02-03T13:03:49;10.80;99.90
68139;DHT22;54940;50.842;4.410;2023-02-03T13:08:57;10.90;99.90
68139;DHT22;54940;50.842;4.410;2023-02-03T13:14:26;11.10;99.90
68139;DHT22;54940;50.842;4.410;2023-02-03T13:16:57;11.00;99.90
68139;DHT22;54940;50.842;4.410;2023-02-03T13:19:33;11.00;99.90
68139;DHT22;54940;50.842;4.410;2023-02-03T13:22:13;11.00;99.90
68139;DHT22;54940;50.842;4.410;2023-02-03T13:24:46;11.00;99.90
68139;DHT22;54940;50.842;4.410;2023-02-03T13:27:40;11.00;99.90
68139;DHT22;54940;50.842;4.410;2023-02-03T13:35:29;11.10;99.90
68139;DHT22;54940;50.842;4.410;2023-02-03T13:38:06;11.10;99.90
68139;DHT22;54940;50.842;4.410;2023-02-03T13:40:58;11.20;99.90
68139;DHT22;54940;50.842;4.410;2023-02-03T13:43:34;11.10;99.90
68139;DHT22;54940;50.842;4.410;2023-02-03T13:46:01;11.20;99.90
68139;DHT22;54940;50.842;4.410;2023-02-03T13:48:32;11.10;99.90
68139;DHT22;54940;50.842;4.410;2023-02-03T13:51:31;11.20;99.90
68139;DHT22;54940;50.842;4.410;2023-02-03T13:54:03;11.20;99.90
68139;DHT22;54940;50.842;4.410;2023-02-03T13:56:30;11.10;99.90
68139;DHT22;54940;50.842;4.410;2023-02-03T14:07:35;11.20;99.90
68139;DHT22;54940;50.842;4.410;2023-02-03T14:25:31;11.40;99.90
68139;DHT22;54940;50.842;4.410;2023-02-03T14:28:09;11.40;99.90
68139;DHT22;54940;50.842;4.410;2023-02-03T14:31:04;11.30;99.90
68139;DHT22;54940;50.842;4.410;2023-02-03T14:38:54;11.30;99.90
68139;DHT22;54940;50.842;4.410;2023-02-03T14:42:02;11.30;99.90
68139;DHT22;54940;50.842;4.410;2023-02-03T14:47:45;11.20;99.90
68139;DHT22;54940;50.842;4.410;2023-02-03T14:55:49;11.20;99.90
68139;DHT22;54940;50.842;4.410;2023-02-03T14:58:35;11.30;99.90
68139;DHT22;54940;50.842;4.410;2023-02-03T15:01:03;11.30;99.90
68139;DHT22;54940;50.842;4.410;2023-02-03T15:03:29;11.30;99.90
68139;DHT22;54940;50.842;4.410;2023-02-03T15:11:30;11.20;99.90
68139;DHT22;54940;50.842;4.410;2023-02-03T15:14:22;11.20;99.90
68139;DHT22;54940;50.842;4.410;2023-02-03T15:16:57;11.20;99.90
68139;DHT22;54940;50.842;4.410;2023-02-03T15:19:26;11.20;99.90
68139;DHT22;54940;50.842;4.410;2023-02-03T15:21:52;11.20;99.90
68139;DHT22;54940;50.842;4.410;2023-02-03T15:24:21;11.10;99.90
68139;DHT22;54940;50.842;4.410;2023-02-03T15:26:51;11.20;99.90
68139;DHT22;54940;50.842;4.410;2023-02-03T15:29:27;11.10;99.90
68139;DHT22;54940;50.842;4.410;2023-02-03T15:32:05;11.20;99.90
68139;DHT22;54940;50.842;4.410;2023-02-03T15:34:41;11.10;99.90
68139;DHT22;54940;50.842;4.410;2023-02-03T15:37:30;11.20;99.90
68139;DHT22;54940;50.842;4.410;2023-02-03T15:45:43;11.10;99.90
68139;DHT22;54940;50.842;4.410;2023-02-03T15:48:34;11.10;99.90
68139;DHT22;54940;50.842;4.410;2023-02-03T15:51:27;11.10;99.90
68139;DHT22;54940;50.842;4.410;2023-02-03T15:59:03;11.10;99.90
68139;DHT22;54940;50.842;4.410;2023-02-03T16:01:29;11.20;99.90
68139;DHT22;54940;50.842;4.410;2023-02-03T16:03:56;11.20;99.90
68139;DHT22;54940;50.842;4.410;2023-02-03T16:06:37;11.20;99.90
68139;DHT22;54940;50.842;4.410;2023-02-03T16:09:06;11.20;99.90
68139;DHT22;54940;50.842;4.410;2023-02-03T16:11:49;11.20;99.90
68139;DHT22;54940;50.842;4.410;2023-02-03T16:14:34;11.10;99.90
68139;DHT22;54940;50.842;4.410;2023-02-03T16:17:00;11.20;99.90
68139;DHT22;54940;50.842;4.410;2023-02-03T16:19:28;11.20;99.90
68139;DHT22;54940;50.842;4.410;2023-02-03T16:21:55;11.20;99.90
68139;DHT22;54940;50.842;4.410;2023-02-03T16:24:40;11.10;99.90
68139;DHT22;54940;50.842;4.410;2023-02-03T16:30:14;11.20;99.90
68139;DHT22;54940;50.842;4.410;2023-02-03T16:35:55;11.20;99.90
68139;DHT22;54940;50.842;4.410;2023-02-03T16:38:47;11.10;99.90
68139;DHT22;54940;50.842;4.410;2023-02-03T16:41:32;11.10;99.90
68139;DHT22;54940;50.842;4.410;2023-02-03T16:44:17;11.10;99.90
68139;DHT22;54940;50.842;4.410;2023-02-03T16:47:02;11.20;99.90
68139;DHT22;54940;50.842;4.410;2023-02-03T16:49:46;11.20;99.90
68139;DHT22;54940;50.842;4.410;2023-02-03T16:52:31;11.20;99.90
68139;DHT22;54940;50.842;4.410;2023-02-03T16:54:57;11.20;99.90
68139;DHT22;54940;50.842;4.410;2023-02-03T16:57:23;11.20;99.90
68139;DHT22;54940;50.842;4.410;2023-02-03T16:59:48;11.20;99.90
68139;DHT22;54940;50.842;4.410;2023-02-03T17:02:14;11.30;99.90
68139;DHT22;54940;50.842;4.410;2023-02-03T17:04:40;11.30;99.90
68139;DHT22;54940;50.842;4.410;2023-02-03T17:07:06;11.30;99.90
68139;DHT22;54940;50.842;4.410;2023-02-03T17:09:32;11.30;99.90
68139;DHT22;54940;50.842;4.410;2023-02-03T17:12:01;11.10;99.90
68139;DHT22;54940;50.842;4.410;2023-02-03T17:14:27;11.10;99.90
68139;DHT22;54940;50.842;4.410;2023-02-03T17:16:53;11.20;99.90
68139;DHT22;54940;50.842;4.410;2023-02-03T17:19:19;11.20;99.90
68139;DHT22;54940;50.842;4.410;2023-02-03T17:21:45;11.10;99.90
68139;DHT22;54940;50.842;4.410;2023-02-03T17:24:13;11.10;99.90
68139;DHT22;54940;50.842;4.410;2023-02-03T17:26:39;11.00;99.90
68139;DHT22;54940;50.842;4.410;2023-02-03T17:29:04;11.00;99.90
68139;DHT22;54940;50.842;4.410;2023-02-03T17:31:31;11.00;99.90
68139;DHT22;54940;50.842;4.410;2023-02-03T17:33:57;11.00;99.90
68139;DHT22;54940;50.842;4.410;2023-02-03T17:36:22;11.00;99.90
68139;DHT22;54940;50.842;4.410;2023-02-03T17:38:50;11.00;99.90
68139;DHT22;54940;50.842;4.410;2023-02-03T17:41:18;11.00;99.90
68139;DHT22;54940;50.842;4.410;2023-02-03T17:43:45;11.00;99.90
68139;DHT22;54940;50.842;4.410;2023-02-03T17:46:14;11.00;99.90
68139;DHT22;54940;50.842;4.410;2023-02-03T17:48:40;10.90;99.90
68139;DHT22;54940;50.842;4.410;2023-02-03T17:51:16;10.90;99.90
68139;DHT22;54940;50.842;4.410;2023-02-03T17:53:42;10.90;99.90
68139;DHT22;54940;50.842;4.410;2023-02-03T17:56:20;10.90;99.90
68139;DHT22;54940;50.842;4.410;2023-02-03T17:59:00;10.90;99.90
68139;DHT22;54940;50.842;4.410;2023-02-03T18:01:27;11.00;99.90
68139;DHT22;54940;50.842;4.410;2023-02-03T18:04:04;11.00;99.90
68139;DHT22;54940;50.842;4.410;2023-02-03T18:06:33;10.90;99.90
68139;DHT22;54940;50.842;4.410;2023-02-03T18:09:01;10.90;99.90
68139;DHT22;54940;50.842;4.410;2023-02-03T18:11:31;10.90;99.90
68139;DHT22;54940;50.842;4.410;2023-02-03T18:13:57;10.90;99.90
68139;DHT22;54940;50.842;4.410;2023-02-03T18:16:26;10.90;99.90
68139;DHT22;54940;50.842;4.410;2023-02-03T18:18:54;10.90;99.90
68139;DHT22;54940;50.842;4.410;2023-02-03T18:21:22;10.90;99.90
68139;DHT22;54940;50.842;4.410;2023-02-03T18:23:48;10.80;99.90
68139;DHT22;54940;50.842;4.410;2023-02-03T18:26:16;10.90;99.90
68139;DHT22;54940;50.842;4.410;2023-02-03T18:28:43;11.00;99.90
68139;DHT22;54940;50.842;4.410;2023-02-03T18:31:12;11.00;99.90
68139;DHT22;54940;50.842;4.410;2023-02-03T18:33:39;11.00;99.90
68139;DHT22;54940;50.842;4.410;2023-02-03T18:36:06;11.00;99.90
68139;DHT22;54940;50.842;4.410;2023-02-03T18:38:33;11.10;99.90
68139;DHT22;54940;50.842;4.410;2023-02-03T18:41:10;11.10;99.90
68139;DHT22;54940;50.842;4.410;2023-02-03T18:43:36;11.10;99.90
68139;DHT22;54940;50.842;4.410;2023-02-03T18:46:09;11.00;99.90
68139;DHT22;54940;50.842;4.410;2023-02-03T18:48:35;11.00;99.90